sensor_id;sensor_type;location;lat;lon;timestamp;P1;durP1;ratioP1;P2;durP2;ratioP2
58222;SDS011;44020;50.890;15.796;2022-11-14T00:00:51;39.30;;;19.10;;
58222;SDS011;44020;50.890;15.796;2022-11-14T00:03:18;32.30;;;17.60;;
58222;SDS011;44020;50.890;15.796;2022-11-14T00:05:45;31.10;;;15.70;;
58222;SDS011;44020;50.890;15.796;2022-11-14T00:08:17;29.30;;;14.30;;
58222;SDS011;44020;50.890;15.796;2022-11-14T00:10:47;23.40;;;12.60;;
58222;SDS011;44020;50.890;15.796;2022-11-14T00:13:16;35.40;;;17.80;;
58222;SDS011;44020;50.890;15.796;2022-11-14T00:15:44;29.80;;;15.30;;
58222;SDS011;44020;50.890;15.796;2022-11-14T00:18:16;28.90;;;13.90;;
58222;SDS011;44020;50.890;15.796;2022-11-14T00:20:52;28.70;;;14.30;;
58222;SDS011;44020;50.890;15.796;2022-11-14T00:23:20;21.80;;;11.40;;
58222;SDS011;44020;50.890;15.796;2022-11-14T00:25:47;22.40;;;12.10;;
58222;SDS011;44020;50.890;15.796;2022-11-14T00:28:15;18.80;;;10.50;;
58222;SDS011;44020;50.890;15.796;2022-11-14T00:30:46;21.60;;;10.20;;
58222;SDS011;44020;50.890;15.796;2022-11-14T00:33:14;15.00;;;9.10;;
58222;SDS011;44020;50.890;15.796;2022-11-14T00:35:48;16.10;;;8.60;;
58222;SDS011;44020;50.890;15.796;2022-11-14T00:38:16;17.40;;;8.80;;
58222;SDS011;44020;50.890;15.796;2022-11-14T00:40:43;16.90;;;10.50;;
58222;SDS011;44020;50.890;15.796;2022-11-14T00:43:11;22.10;;;11.50;;
58222;SDS011;44020;50.890;15.796;2022-11-14T00:45:38;19.50;;;11.30;;
58222;SDS011;44020;50.890;15.796;2022-11-14T00:48:05;20.80;;;11.70;;
58222;SDS011;44020;50.890;15.796;2022-11-14T00:50:32;25.70;;;12.20;;
58222;SDS011;44020;50.890;15.796;2022-11-14T00:52:59;17.00;;;9.90;;
58222;SDS011;44020;50.890;15.796;2022-11-14T00:55:26;15.50;;;8.80;;
58222;SDS011;44020;50.890;15.796;2022-11-14T00:57:53;13.40;;;8.00;;
58222;SDS011;44020;50.890;15.796;2022-11-14T01:00:20;13.40;;;8.00;;
58222;SDS011;44020;50.890;15.796;2022-11-14T01:02:48;16.60;;;8.40;;
58222;SDS011;44020;50.890;15.796;2022-11-14T01:05:15;15.80;;;8.90;;
58222;SDS011;44020;50.890;15.796;2022-11-14T01:07:42;15.50;;;8.10;;
58222;SDS011;44020;50.890;15.796;2022-11-14T01:10:09;16.70;;;9.00;;
58222;SDS011;44020;50.890;15.796;2022-11-14T01:12:36;14.90;;;8.00;;
58222;SDS011;44020;50.890;15.796;2022-11-14T01:15:04;15.10;;;8.20;;
58222;SDS011;44020;50.890;15.796;2022-11-14T01:17:31;15.20;;;8.40;;
58222;SDS011;44020;50.890;15.796;2022-11-14T01:19:58;16.70;;;9.00;;
58222;SDS011;44020;50.890;15.796;2022-11-14T01:22:25;16.40;;;8.70;;
58222;SDS011;44020;50.890;15.796;2022-11-14T01:24:53;13.60;;;8.30;;
58222;SDS011;44020;50.890;15.796;2022-11-14T01:27:20;13.90;;;8.10;;
58222;SDS011;44020;50.890;15.796;2022-11-14T01:29:48;12.90;;;7.50;;
58222;SDS011;44020;50.890;15.796;2022-11-14T01:32:15;14.80;;;8.10;;
58222;SDS011;44020;50.890;15.796;2022-11-14T01:34:42;19.50;;;7.70;;
58222;SDS011;44020;50.890;15.796;2022-11-14T01:37:09;12.90;;;7.50;;
58222;SDS011;44020;50.890;15.796;2022-11-14T01:39:36;12.50;;;7.80;;
58222;SDS011;44020;50.890;15.796;2022-11-14T01:42:04;11.60;;;7.10;;
58222;SDS011;44020;50.890;15.796;2022-11-14T01:44:48;16.40;;;7.30;;
58222;SDS011;44020;50.890;15.796;2022-11-14T01:47:20;14.30;;;6.70;;
58222;SDS011;44020;50.890;15.796;2022-11-14T01:49:51;12.20;;;6.50;;
58222;SDS011;44020;50.890;15.796;2022-11-14T01:54:58;12.40;;;6.60;;
58222;SDS011;44020;50.890;15.796;2022-11-14T01:57:28;9.50;;;6.50;;
58222;SDS011;44020;50.890;15.796;2022-11-14T02:00:00;11.50;;;6.80;;
58222;SDS011;44020;50.890;15.796;2022-11-14T02:02:32;11.10;;;6.30;;
58222;SDS011;44020;50.890;15.796;2022-11-14T02:05:08;12.70;;;7.00;;
58222;SDS011;44020;50.890;15.796;2022-11-14T02:07:39;9.50;;;6.00;;
58222;SDS011;44020;50.890;15.796;2022-11-14T02:10:08;9.30;;;6.20;;
58222;SDS011;44020;50.890;15.796;2022-11-14T02:12:40;10.50;;;6.10;;
58222;SDS011;44020;50.890;15.796;2022-11-14T02:15:08;9.00;;;6.20;;
58222;SDS011;44020;50.890;15.796;2022-11-14T02:17:36;10.20;;;6.60;;
58222;SDS011;44020;50.890;15.796;2022-11-14T02:22:38;10.60;;;6.40;;
58222;SDS011;44020;50.890;15.796;2022-11-14T02:25:07;10.50;;;6.60;;
58222;SDS011;44020;50.890;15.796;2022-11-14T02:27:37;10.60;;;6.40;;
58222;SDS011;44020;50.890;15.796;2022-11-14T02:30:17;11.50;;;6.70;;
58222;SDS011;44020;50.890;15.796;2022-11-14T02:32:46;10.90;;;6.80;;
58222;SDS011;44020;50.890;15.796;2022-11-14T02:35:13;11.30;;;6.40;;
58222;SDS011;44020;50.890;15.796;2022-11-14T02:37:40;9.90;;;6.20;;
58222;SDS011;44020;50.890;15.796;2022-11-14T02:40:08;9.20;;;6.20;;
58222;SDS011;44020;50.890;15.796;2022-11-14T02:42:36;9.50;;;6.00;;
58222;SDS011;44020;50.890;15.796;2022-11-14T02:45:03;9.90;;;6.50;;
58222;SDS011;44020;50.890;15.796;2022-11-14T02:47:31;11.00;;;6.60;;
58222;SDS011;44020;50.890;15.796;2022-11-14T02:49:58;8.60;;;5.90;;
58222;SDS011;44020;50.890;15.796;2022-11-14T02:52:25;10.20;;;6.30;;
58222;SDS011;44020;50.890;15.796;2022-11-14T02:54:52;9.80;;;6.80;;
58222;SDS011;44020;50.890;15.796;2022-11-14T02:57:19;10.80;;;6.30;;
58222;SDS011;44020;50.890;15.796;2022-11-14T02:59:47;8.90;;;5.90;;
58222;SDS011;44020;50.890;15.796;2022-11-14T03:02:14;9.80;;;6.40;;
58222;SDS011;44020;50.890;15.796;2022-11-14T03:04:41;9.90;;;5.90;;
58222;SDS011;44020;50.890;15.796;2022-11-14T03:07:08;8.60;;;6.10;;
58222;SDS011;44020;50.890;15.796;2022-11-14T03:09:35;8.30;;;5.80;;
58222;SDS011;44020;50.890;15.796;2022-11-14T03:12:02;9.40;;;5.70;;
58222;SDS011;44020;50.890;15.796;2022-11-14T03:14:30;9.00;;;5.50;;
58222;SDS011;44020;50.890;15.796;2022-11-14T03:16:57;9.00;;;5.60;;
58222;SDS011;44020;50.890;15.796;2022-11-14T03:19:25;7.10;;;4.80;;
58222;SDS011;44020;50.890;15.796;2022-11-14T03:21:52;10.30;;;5.90;;
58222;SDS011;44020;50.890;15.796;2022-11-14T03:24:19;9.10;;;5.70;;
58222;SDS011;44020;50.890;15.796;2022-11-14T03:26:46;10.10;;;6.40;;
58222;SDS011;44020;50.890;15.796;2022-11-14T03:29:14;9.60;;;5.60;;
58222;SDS011;44020;50.890;15.796;2022-11-14T03:31:41;9.00;;;5.30;;
58222;SDS011;44020;50.890;15.796;2022-11-14T03:34:09;9.30;;;5.90;;
58222;SDS011;44020;50.890;15.796;2022-11-14T03:36:37;8.40;;;5.60;;
58222;SDS011;44020;50.890;15.796;2022-11-14T03:39:04;11.00;;;6.50;;
58222;SDS011;44020;50.890;15.796;2022-11-14T03:41:32;5.50;;;3.90;;
58222;SDS011;44020;50.890;15.796;2022-11-14T03:43:59;10.40;;;5.90;;
58222;SDS011;44020;50.890;15.796;2022-11-14T03:46:26;9.40;;;5.50;;
58222;SDS011;44020;50.890;15.796;2022-11-14T03:48:53;10.90;;;6.10;;
58222;SDS011;44020;50.890;15.796;2022-11-14T03:51:20;8.80;;;5.50;;
58222;SDS011;44020;50.890;15.796;2022-11-14T03:53:47;7.40;;;5.20;;
58222;SDS011;44020;50.890;15.796;2022-11-14T03:56:14;11.70;;;5.20;;
58222;SDS011;44020;50.890;15.796;2022-11-14T03:58:41;11.80;;;5.90;;
58222;SDS011;44020;50.890;15.796;2022-11-14T04:01:08;9.00;;;5.60;;
58222;SDS011;44020;50.890;15.796;2022-11-14T04:03:36;8.50;;;5.30;;
58222;SDS011;44020;50.890;15.796;2022-11-14T04:06:03;8.00;;;5.20;;
58222;SDS011;44020;50.890;15.796;2022-11-14T04:08:31;9.00;;;5.20;;
58222;SDS011;44020;50.890;15.796;2022-11-14T04:10:58;9.10;;;5.50;;
58222;SDS011;44020;50.890;15.796;2022-11-14T04:13:25;8.30;;;5.10;;
58222;SDS011;44020;50.890;15.796;2022-11-14T04:15:53;9.50;;;5.80;;
58222;SDS011;44020;50.890;15.796;2022-11-14T04:18:24;9.30;;;5.50;;
58222;SDS011;44020;50.890;15.796;2022-11-14T04:20:52;10.90;;;5.70;;
58222;SDS011;44020;50.890;15.796;2022-11-14T04:23:20;9.30;;;5.80;;
58222;SDS011;44020;50.890;15.796;2022-11-14T04:25:47;10.80;;;5.90;;
58222;SDS011;44020;50.890;15.796;2022-11-14T04:28:14;9.40;;;5.80;;
58222;SDS011;44020;50.890;15.796;2022-11-14T04:30:42;8.60;;;5.60;;
58222;SDS011;44020;50.890;15.796;2022-11-14T04:33:11;11.50;;;6.30;;
58222;SDS011;44020;50.890;15.796;2022-11-14T04:35:38;11.70;;;6.00;;
58222;SDS011;44020;50.890;15.796;2022-11-14T04:38:05;10.90;;;6.40;;
58222;SDS011;44020;50.890;15.796;2022-11-14T04:40:32;13.30;;;6.00;;
58222;SDS011;44020;50.890;15.796;2022-11-14T04:42:59;11.10;;;6.50;;
58222;SDS011;44020;50.890;15.796;2022-11-14T04:45:27;9.50;;;5.80;;
58222;SDS011;44020;50.890;15.796;2022-11-14T04:47:54;12.20;;;6.60;;
58222;SDS011;44020;50.890;15.796;2022-11-14T04:50:21;12.80;;;7.00;;
58222;SDS011;44020;50.890;15.796;2022-11-14T04:52:51;10.80;;;6.30;;
58222;SDS011;44020;50.890;15.796;2022-11-14T04:55:19;11.90;;;6.90;;
58222;SDS011;44020;50.890;15.796;2022-11-14T04:57:46;15.20;;;7.30;;
58222;SDS011;44020;50.890;15.796;2022-11-14T05:00:13;12.20;;;7.50;;
58222;SDS011;44020;50.890;15.796;2022-11-14T05:02:41;13.40;;;7.50;;
58222;SDS011;44020;50.890;15.796;2022-11-14T05:05:08;13.00;;;7.90;;
58222;SDS011;44020;50.890;15.796;2022-11-14T05:07:35;12.30;;;7.20;;
58222;SDS011;44020;50.890;15.796;2022-11-14T05:10:02;12.20;;;7.90;;
58222;SDS011;44020;50.890;15.796;2022-11-14T05:12:30;14.10;;;8.40;;
58222;SDS011;44020;50.890;15.796;2022-11-14T05:14:58;13.40;;;8.20;;
58222;SDS011;44020;50.890;15.796;2022-11-14T05:17:25;14.60;;;9.20;;
58222;SDS011;44020;50.890;15.796;2022-11-14T05:19:52;15.90;;;8.40;;
58222;SDS011;44020;50.890;15.796;2022-11-14T05:22:20;13.10;;;8.00;;
58222;SDS011;44020;50.890;15.796;2022-11-14T05:24:47;16.10;;;8.80;;
58222;SDS011;44020;50.890;15.796;2022-11-14T05:27:14;16.30;;;9.40;;
58222;SDS011;44020;50.890;15.796;2022-11-14T05:29:41;15.30;;;9.70;;
58222;SDS011;44020;50.890;15.796;2022-11-14T05:32:08;14.70;;;9.20;;
58222;SDS011;44020;50.890;15.796;2022-11-14T05:34:36;15.50;;;9.60;;
58222;SDS011;44020;50.890;15.796;2022-11-14T05:37:03;17.00;;;10.30;;
58222;SDS011;44020;50.890;15.796;2022-11-14T05:39:30;16.50;;;9.90;;
58222;SDS011;44020;50.890;15.796;2022-11-14T05:41:57;14.90;;;9.50;;
58222;SDS011;44020;50.890;15.796;2022-11-14T05:44:24;13.80;;;8.80;;
58222;SDS011;44020;50.890;15.796;2022-11-14T05:46:51;17.40;;;9.30;;
58222;SDS011;44020;50.890;15.796;2022-11-14T05:49:19;17.70;;;9.20;;
58222;SDS011;44020;50.890;15.796;2022-11-14T05:51:46;13.90;;;8.80;;
58222;SDS011;44020;50.890;15.796;2022-11-14T05:54:13;15.60;;;9.60;;
58222;SDS011;44020;50.890;15.796;2022-11-14T05:56:40;18.60;;;10.60;;
58222;SDS011;44020;50.890;15.796;2022-11-14T05:59:07;16.40;;;10.60;;
58222;SDS011;44020;50.890;15.796;2022-11-14T06:01:34;18.60;;;11.30;;
58222;SDS011;44020;50.890;15.796;2022-11-14T06:04:04;16.60;;;11.20;;
58222;SDS011;44020;50.890;15.796;2022-11-14T06:06:31;18.90;;;11.30;;
58222;SDS011;44020;50.890;15.796;2022-11-14T06:08:59;18.40;;;11.00;;
58222;SDS011;44020;50.890;15.796;2022-11-14T06:11:26;16.30;;;11.00;;
58222;SDS011;44020;50.890;15.796;2022-11-14T06:13:53;17.80;;;11.50;;
58222;SDS011;44020;50.890;15.796;2022-11-14T06:16:21;19.50;;;11.60;;
58222;SDS011;44020;50.890;15.796;2022-11-14T06:18:48;19.80;;;11.80;;
58222;SDS011;44020;50.890;15.796;2022-11-14T06:21:16;17.40;;;10.70;;
58222;SDS011;44020;50.890;15.796;2022-11-14T06:23:45;17.40;;;11.00;;
58222;SDS011;44020;50.890;15.796;2022-11-14T06:28:46;19.80;;;11.60;;
58222;SDS011;44020;50.890;15.796;2022-11-14T06:31:15;17.70;;;11.10;;
58222;SDS011;44020;50.890;15.796;2022-11-14T06:33:43;18.30;;;11.00;;
58222;SDS011;44020;50.890;15.796;2022-11-14T06:36:10;21.40;;;12.80;;
58222;SDS011;44020;50.890;15.796;2022-11-14T06:38:38;17.40;;;11.60;;
58222;SDS011;44020;50.890;15.796;2022-11-14T06:41:17;18.80;;;11.90;;
58222;SDS011;44020;50.890;15.796;2022-11-14T06:43:47;18.60;;;11.40;;
58222;SDS011;44020;50.890;15.796;2022-11-14T06:46:17;20.60;;;12.10;;
58222;SDS011;44020;50.890;15.796;2022-11-14T06:48:46;20.40;;;11.80;;
58222;SDS011;44020;50.890;15.796;2022-11-14T06:51:15;19.40;;;12.00;;
58222;SDS011;44020;50.890;15.796;2022-11-14T06:53:43;19.30;;;11.50;;
58222;SDS011;44020;50.890;15.796;2022-11-14T06:56:12;20.90;;;12.00;;
58222;SDS011;44020;50.890;15.796;2022-11-14T06:58:42;19.60;;;12.80;;
58222;SDS011;44020;50.890;15.796;2022-11-14T07:01:11;18.10;;;11.50;;
58222;SDS011;44020;50.890;15.796;2022-11-14T07:03:43;19.40;;;12.40;;
58222;SDS011;44020;50.890;15.796;2022-11-14T07:06:21;20.10;;;11.40;;
58222;SDS011;44020;50.890;15.796;2022-11-14T07:08:50;19.20;;;12.40;;
58222;SDS011;44020;50.890;15.796;2022-11-14T07:11:20;21.10;;;11.80;;
58222;SDS011;44020;50.890;15.796;2022-11-14T07:13:50;18.20;;;12.30;;
58222;SDS011;44020;50.890;15.796;2022-11-14T07:16:18;19.50;;;11.90;;
58222;SDS011;44020;50.890;15.796;2022-11-14T07:18:46;19.20;;;12.40;;
58222;SDS011;44020;50.890;15.796;2022-11-14T07:21:13;21.30;;;12.90;;
58222;SDS011;44020;50.890;15.796;2022-11-14T07:23:41;18.90;;;12.10;;
58222;SDS011;44020;50.890;15.796;2022-11-14T07:26:08;19.40;;;11.90;;
58222;SDS011;44020;50.890;15.796;2022-11-14T07:28:37;20.50;;;12.60;;
58222;SDS011;44020;50.890;15.796;2022-11-14T07:31:06;20.00;;;12.40;;
58222;SDS011;44020;50.890;15.796;2022-11-14T07:33:35;20.50;;;12.60;;
58222;SDS011;44020;50.890;15.796;2022-11-14T07:36:02;22.90;;;13.00;;
58222;SDS011;44020;50.890;15.796;2022-11-14T07:38:30;20.20;;;12.00;;
58222;SDS011;44020;50.890;15.796;2022-11-14T07:40:58;18.50;;;12.30;;
58222;SDS011;44020;50.890;15.796;2022-11-14T07:43:27;18.80;;;11.60;;
58222;SDS011;44020;50.890;15.796;2022-11-14T07:45:58;17.50;;;10.90;;
58222;SDS011;44020;50.890;15.796;2022-11-14T07:48:27;15.80;;;11.00;;
58222;SDS011;44020;50.890;15.796;2022-11-14T07:51:01;16.30;;;10.50;;
58222;SDS011;44020;50.890;15.796;2022-11-14T07:53:30;15.50;;;9.90;;
58222;SDS011;44020;50.890;15.796;2022-11-14T07:56:02;19.30;;;11.40;;
58222;SDS011;44020;50.890;15.796;2022-11-14T07:58:33;19.40;;;10.10;;
58222;SDS011;44020;50.890;15.796;2022-11-14T08:01:01;16.70;;;10.10;;
58222;SDS011;44020;50.890;15.796;2022-11-14T08:03:29;14.30;;;9.50;;
58222;SDS011;44020;50.890;15.796;2022-11-14T08:06:02;17.20;;;10.80;;
58222;SDS011;44020;50.890;15.796;2022-11-14T08:08:34;16.60;;;10.20;;
58222;SDS011;44020;50.890;15.796;2022-11-14T08:11:02;15.50;;;9.00;;
58222;SDS011;44020;50.890;15.796;2022-11-14T08:13:30;14.40;;;9.60;;
58222;SDS011;44020;50.890;15.796;2022-11-14T08:15:57;15.10;;;9.00;;
58222;SDS011;44020;50.890;15.796;2022-11-14T08:18:25;15.80;;;9.80;;
58222;SDS011;44020;50.890;15.796;2022-11-14T08:20:52;16.00;;;9.50;;
58222;SDS011;44020;50.890;15.796;2022-11-14T08:23:23;14.10;;;9.40;;
58222;SDS011;44020;50.890;15.796;2022-11-14T08:25:50;15.10;;;9.80;;
58222;SDS011;44020;50.890;15.796;2022-11-14T08:28:17;14.40;;;9.00;;
58222;SDS011;44020;50.890;15.796;2022-11-14T08:30:45;14.50;;;9.20;;
58222;SDS011;44020;50.890;15.796;2022-11-14T08:33:11;15.10;;;9.30;;
58222;SDS011;44020;50.890;15.796;2022-11-14T08:35:38;13.70;;;8.70;;
58222;SDS011;44020;50.890;15.796;2022-11-14T08:38:06;14.10;;;9.40;;
58222;SDS011;44020;50.890;15.796;2022-11-14T08:40:33;14.70;;;9.30;;
58222;SDS011;44020;50.890;15.796;2022-11-14T08:43:00;12.60;;;8.50;;
58222;SDS011;44020;50.890;15.796;2022-11-14T08:45:28;12.70;;;8.90;;
58222;SDS011;44020;50.890;15.796;2022-11-14T08:47:55;14.40;;;8.10;;
58222;SDS011;44020;50.890;15.796;2022-11-14T08:50:23;11.30;;;7.70;;
58222;SDS011;44020;50.890;15.796;2022-11-14T08:52:50;13.20;;;8.00;;
58222;SDS011;44020;50.890;15.796;2022-11-14T08:55:18;10.50;;;6.60;;
58222;SDS011;44020;50.890;15.796;2022-11-14T08:57:46;10.60;;;7.00;;
58222;SDS011;44020;50.890;15.796;2022-11-14T09:00:14;12.00;;;7.30;;
58222;SDS011;44020;50.890;15.796;2022-11-14T09:02:41;11.40;;;6.90;;
58222;SDS011;44020;50.890;15.796;2022-11-14T09:05:08;10.10;;;6.80;;
58222;SDS011;44020;50.890;15.796;2022-11-14T09:07:36;7.30;;;5.90;;
58222;SDS011;44020;50.890;15.796;2022-11-14T09:10:03;8.10;;;5.50;;
58222;SDS011;44020;50.890;15.796;2022-11-14T09:12:31;6.70;;;4.50;;
58222;SDS011;44020;50.890;15.796;2022-11-14T09:14:59;7.70;;;5.30;;
58222;SDS011;44020;50.890;15.796;2022-11-14T09:17:26;9.30;;;5.70;;
58222;SDS011;44020;50.890;15.796;2022-11-14T09:19:53;9.70;;;5.40;;
58222;SDS011;44020;50.890;15.796;2022-11-14T09:22:21;7.70;;;4.40;;
58222;SDS011;44020;50.890;15.796;2022-11-14T09:24:48;6.90;;;4.40;;
58222;SDS011;44020;50.890;15.796;2022-11-14T09:27:17;6.30;;;4.60;;
58222;SDS011;44020;50.890;15.796;2022-11-14T09:29:44;7.70;;;4.90;;
58222;SDS011;44020;50.890;15.796;2022-11-14T09:32:11;7.40;;;5.30;;
58222;SDS011;44020;50.890;15.796;2022-11-14T09:34:38;7.40;;;4.40;;
58222;SDS011;44020;50.890;15.796;2022-11-14T09:37:08;6.70;;;4.70;;
58222;SDS011;44020;50.890;15.796;2022-11-14T09:39:35;9.60;;;5.30;;
58222;SDS011;44020;50.890;15.796;2022-11-14T09:44:58;8.70;;;6.10;;
58222;SDS011;44020;50.890;15.796;2022-11-14T09:50:04;7.60;;;5.30;;
58222;SDS011;44020;50.890;15.796;2022-11-14T09:52:48;7.70;;;5.50;;
58222;SDS011;44020;50.890;15.796;2022-11-14T09:55:22;7.70;;;5.30;;
58222;SDS011;44020;50.890;15.796;2022-11-14T09:57:54;9.50;;;6.30;;
58222;SDS011;44020;50.890;15.796;2022-11-14T10:00:23;10.10;;;6.70;;
58222;SDS011;44020;50.890;15.796;2022-11-14T10:11:22;10.50;;;7.20;;
58222;SDS011;44020;50.890;15.796;2022-11-14T10:19:38;9.80;;;6.90;;
58222;SDS011;44020;50.890;15.796;2022-11-14T10:25:18;10.70;;;7.80;;
58222;SDS011;44020;50.890;15.796;2022-11-14T10:27:44;14.20;;;9.20;;
58222;SDS011;44020;50.890;15.796;2022-11-14T10:30:14;12.60;;;8.80;;
58222;SDS011;44020;50.890;15.796;2022-11-14T10:35:56;12.10;;;8.30;;
58222;SDS011;44020;50.890;15.796;2022-11-14T10:41:12;13.20;;;8.50;;
58222;SDS011;44020;50.890;15.796;2022-11-14T10:43:43;12.10;;;8.70;;
58222;SDS011;44020;50.890;15.796;2022-11-14T10:46:17;13.10;;;8.80;;
58222;SDS011;44020;50.890;15.796;2022-11-14T10:48:51;12.40;;;9.00;;
58222;SDS011;44020;50.890;15.796;2022-11-14T10:51:37;13.50;;;9.60;;
58222;SDS011;44020;50.890;15.796;2022-11-14T10:56:45;14.70;;;9.60;;
58222;SDS011;44020;50.890;15.796;2022-11-14T10:59:15;12.70;;;8.90;;
58222;SDS011;44020;50.890;15.796;2022-11-14T11:01:44;12.80;;;9.40;;
58222;SDS011;44020;50.890;15.796;2022-11-14T11:07:35;14.50;;;10.90;;
58222;SDS011;44020;50.890;15.796;2022-11-14T11:10:18;15.30;;;10.50;;
58222;SDS011;44020;50.890;15.796;2022-11-14T11:13:10;15.50;;;11.00;;
58222;SDS011;44020;50.890;15.796;2022-11-14T11:15:41;16.90;;;11.00;;
58222;SDS011;44020;50.890;15.796;2022-11-14T11:18:28;14.30;;;10.50;;
58222;SDS011;44020;50.890;15.796;2022-11-14T11:21:04;17.30;;;10.60;;
58222;SDS011;44020;50.890;15.796;2022-11-14T11:23:33;16.50;;;11.00;;
58222;SDS011;44020;50.890;15.796;2022-11-14T11:26:06;15.80;;;11.30;;
58222;SDS011;44020;50.890;15.796;2022-11-14T11:28:41;16.90;;;11.40;;
58222;SDS011;44020;50.890;15.796;2022-11-14T11:31:09;17.70;;;10.90;;
58222;SDS011;44020;50.890;15.796;2022-11-14T11:33:37;15.90;;;11.10;;
58222;SDS011;44020;50.890;15.796;2022-11-14T11:38:32;15.70;;;11.00;;
58222;SDS011;44020;50.890;15.796;2022-11-14T11:41:16;17.60;;;10.90;;
58222;SDS011;44020;50.890;15.796;2022-11-14T11:43:57;15.20;;;10.80;;
58222;SDS011;44020;50.890;15.796;2022-11-14T11:46:30;15.00;;;11.10;;
58222;SDS011;44020;50.890;15.796;2022-11-14T11:49:51;15.60;;;10.60;;
58222;SDS011;44020;50.890;15.796;2022-11-14T11:52:04;14.00;;;9.60;;
58222;SDS011;44020;50.890;15.796;2022-11-14T11:54:59;14.40;;;10.00;;
58222;SDS011;44020;50.890;15.796;2022-11-14T11:57:35;17.80;;;10.90;;
58222;SDS011;44020;50.890;15.796;2022-11-14T12:00:16;15.80;;;10.60;;
58222;SDS011;44020;50.890;15.796;2022-11-14T12:02:47;15.00;;;10.20;;
58222;SDS011;44020;50.890;15.796;2022-11-14T12:08:05;15.60;;;11.00;;
58222;SDS011;44020;50.890;15.796;2022-11-14T12:10:53;15.80;;;11.40;;
58222;SDS011;44020;50.890;15.796;2022-11-14T12:18:41;16.10;;;10.60;;
58222;SDS011;44020;50.890;15.796;2022-11-14T12:24:18;16.10;;;11.20;;
58222;SDS011;44020;50.890;15.796;2022-11-14T12:27:15;16.80;;;11.30;;
58222;SDS011;44020;50.890;15.796;2022-11-14T12:30:07;16.60;;;10.70;;
58222;SDS011;44020;50.890;15.796;2022-11-14T12:32:40;16.50;;;10.90;;
58222;SDS011;44020;50.890;15.796;2022-11-14T12:35:19;14.20;;;10.80;;
58222;SDS011;44020;50.890;15.796;2022-11-14T12:37:49;14.10;;;10.50;;
58222;SDS011;44020;50.890;15.796;2022-11-14T12:40:22;13.80;;;10.50;;
58222;SDS011;44020;50.890;15.796;2022-11-14T12:42:55;15.20;;;10.10;;
58222;SDS011;44020;50.890;15.796;2022-11-14T12:50:52;15.00;;;10.50;;
58222;SDS011;44020;50.890;15.796;2022-11-14T12:59:04;14.40;;;10.10;;
58222;SDS011;44020;50.890;15.796;2022-11-14T13:09:57;15.40;;;10.20;;
58222;SDS011;44020;50.890;15.796;2022-11-14T13:12:35;12.90;;;9.50;;
58222;SDS011;44020;50.890;15.796;2022-11-14T13:15:23;11.60;;;8.50;;
58222;SDS011;44020;50.890;15.796;2022-11-14T13:18:17;13.10;;;9.00;;
58222;SDS011;44020;50.890;15.796;2022-11-14T13:22:15;13.60;;;9.10;;
58222;SDS011;44020;50.890;15.796;2022-11-14T13:24:13;12.00;;;9.30;;
58222;SDS011;44020;50.890;15.796;2022-11-14T13:26:45;14.10;;;10.60;;
58222;SDS011;44020;50.890;15.796;2022-11-14T13:32:09;10.40;;;8.30;;
58222;SDS011;44020;50.890;15.796;2022-11-14T13:34:45;10.00;;;8.00;;
58222;SDS011;44020;50.890;15.796;2022-11-14T13:46:01;10.80;;;8.70;;
58222;SDS011;44020;50.890;15.796;2022-11-14T13:52:10;12.50;;;9.40;;
58222;SDS011;44020;50.890;15.796;2022-11-14T13:54:48;12.80;;;9.00;;
58222;SDS011;44020;50.890;15.796;2022-11-14T14:00:07;11.10;;;8.70;;
58222;SDS011;44020;50.890;15.796;2022-11-14T14:02:44;11.50;;;9.50;;
58222;SDS011;44020;50.890;15.796;2022-11-14T14:11:14;12.40;;;9.90;;
58222;SDS011;44020;50.890;15.796;2022-11-14T14:17:12;15.60;;;9.30;;
58222;SDS011;44020;50.890;15.796;2022-11-14T14:22:39;11.90;;;9.50;;
58222;SDS011;44020;50.890;15.796;2022-11-14T14:25:18;11.90;;;9.10;;
58222;SDS011;44020;50.890;15.796;2022-11-14T14:31:01;16.40;;;10.50;;
58222;SDS011;44020;50.890;15.796;2022-11-14T14:33:40;15.70;;;10.90;;
58222;SDS011;44020;50.890;15.796;2022-11-14T14:39:14;15.30;;;10.50;;
58222;SDS011;44020;50.890;15.796;2022-11-14T14:41:45;15.10;;;12.10;;
58222;SDS011;44020;50.890;15.796;2022-11-14T14:44:23;15.30;;;11.10;;
58222;SDS011;44020;50.890;15.796;2022-11-14T14:46:53;15.50;;;10.90;;
58222;SDS011;44020;50.890;15.796;2022-11-14T14:49:22;15.40;;;11.40;;
58222;SDS011;44020;50.890;15.796;2022-11-14T14:51:56;22.00;;;16.60;;
58222;SDS011;44020;50.890;15.796;2022-11-14T14:54:24;23.80;;;16.00;;
58222;SDS011;44020;50.890;15.796;2022-11-14T14:59:28;16.10;;;12.10;;
58222;SDS011;44020;50.890;15.796;2022-11-14T15:01:56;18.10;;;13.10;;
58222;SDS011;44020;50.890;15.796;2022-11-14T15:04:25;18.50;;;12.20;;
58222;SDS011;44020;50.890;15.796;2022-11-14T15:06:54;18.70;;;13.20;;
58222;SDS011;44020;50.890;15.796;2022-11-14T15:09:24;28.00;;;16.10;;
58222;SDS011;44020;50.890;15.796;2022-11-14T15:11:55;21.60;;;14.40;;
58222;SDS011;44020;50.890;15.796;2022-11-14T15:14:25;23.30;;;13.50;;
58222;SDS011;44020;50.890;15.796;2022-11-14T15:16:55;20.00;;;12.70;;
58222;SDS011;44020;50.890;15.796;2022-11-14T15:19:27;18.60;;;12.10;;
58222;SDS011;44020;50.890;15.796;2022-11-14T15:22:02;18.60;;;12.50;;
58222;SDS011;44020;50.890;15.796;2022-11-14T15:24:38;17.00;;;10.80;;
58222;SDS011;44020;50.890;15.796;2022-11-14T15:27:12;17.20;;;10.40;;
58222;SDS011;44020;50.890;15.796;2022-11-14T15:29:45;18.10;;;11.90;;
58222;SDS011;44020;50.890;15.796;2022-11-14T15:32:17;22.20;;;13.50;;
58222;SDS011;44020;50.890;15.796;2022-11-14T15:37:34;30.30;;;16.30;;
58222;SDS011;44020;50.890;15.796;2022-11-14T15:40:15;194.90;;;47.70;;
58222;SDS011;44020;50.890;15.796;2022-11-14T15:42:46;157.20;;;40.40;;
58222;SDS011;44020;50.890;15.796;2022-11-14T15:48:13;112.30;;;45.50;;
58222;SDS011;44020;50.890;15.796;2022-11-14T15:50:48;225.30;;;70.40;;
58222;SDS011;44020;50.890;15.796;2022-11-14T15:55:48;104.10;;;45.00;;
58222;SDS011;44020;50.890;15.796;2022-11-14T15:58:15;86.20;;;40.80;;
58222;SDS011;44020;50.890;15.796;2022-11-14T16:00:43;64.80;;;33.80;;
58222;SDS011;44020;50.890;15.796;2022-11-14T16:03:14;50.10;;;28.60;;
58222;SDS011;44020;50.890;15.796;2022-11-14T16:05:44;64.80;;;34.50;;
58222;SDS011;44020;50.890;15.796;2022-11-14T16:08:12;60.30;;;34.20;;
58222;SDS011;44020;50.890;15.796;2022-11-14T16:10:39;149.30;;;74.80;;
58222;SDS011;44020;50.890;15.796;2022-11-14T16:13:06;137.90;;;72.90;;
58222;SDS011;44020;50.890;15.796;2022-11-14T16:15:34;101.10;;;54.80;;
58222;SDS011;44020;50.890;15.796;2022-11-14T16:18:02;77.10;;;44.30;;
58222;SDS011;44020;50.890;15.796;2022-11-14T16:20:34;78.70;;;42.10;;
58222;SDS011;44020;50.890;15.796;2022-11-14T16:23:03;55.60;;;33.70;;
58222;SDS011;44020;50.890;15.796;2022-11-14T16:25:31;85.70;;;42.90;;
58222;SDS011;44020;50.890;15.796;2022-11-14T16:27:59;90.40;;;46.30;;
58222;SDS011;44020;50.890;15.796;2022-11-14T16:30:26;86.00;;;45.70;;
58222;SDS011;44020;50.890;15.796;2022-11-14T16:32:53;87.10;;;45.40;;
58222;SDS011;44020;50.890;15.796;2022-11-14T16:35:22;59.00;;;33.90;;
58222;SDS011;44020;50.890;15.796;2022-11-14T16:37:51;58.90;;;35.90;;